Time;durP1;ratioP1;P1;durP2;ratioP2;P2;SDS_P1;SDS_P2;PMS_P1;PMS_P2;Temp;Humidity;BMP_temperature;BMP_pressure;BME280_temperature;BME280_humidity;BME280_pressure;Samples;Min_cycle;Max_cycle;Signal;HPM_P1;HPM_P2
2021/11/08 00:01:45;;;;;;;1.60;1.00;;;;;;;;;;5032670;28;20036;-53
2021/11/08 00:04:11;;;;;;;6.10;1.10;;;;;;;;;;5031739;28;20507;-52
2021/11/08 00:06:37;;;;;;;3.65;1.63;;;;;;;;;;5032098;28;20522;-52
2021/11/08 00:09:05;;;;;;;3.70;1.42;;;;;;;;;;5032460;28;20032;-52
2021/11/08 00:11:32;;;;;;;8.13;1.60;;;;;;;;;;5031591;28;20040;-52
2021/11/08 00:13:58;;;;;;;3.28;1.40;;;;;;;;;;5031519;28;20029;-52
2021/11/08 00:16:36;;;;;;;2.97;1.30;;;;;;;;;;5052218;28;20033;-52
2021/11/08 00:21:32;;;;;;;2.08;1.33;;;;;;;;;;5051866;28;20124;-52
2021/11/08 00:23:58;;;;;;;3.80;1.38;;;;;;;;;;5051434;28;20048;-52
2021/11/08 00:26:24;;;;;;;4.68;1.45;;;;;;;;;;5051919;28;20059;-52
2021/11/08 00:28:50;;;;;;;2.50;1.40;;;;;;;;;;5051764;28;20083;-52
2021/11/08 00:31:16;;;;;;;2.55;1.25;;;;;;;;;;5090053;28;20101;-52
2021/11/08 00:33:42;;;;;;;3.72;1.25;;;;;;;;;;5114026;28;20054;-52
2021/11/08 00:36:08;;;;;;;4.65;1.90;;;;;;;;;;5115132;28;20023;-52
2021/11/08 00:38:34;;;;;;;2.13;1.70;;;;;;;;;;5114854;28;20105;-52
2021/11/08 00:41:01;;;;;;;2.33;1.20;;;;;;;;;;5114754;28;20047;-52
2021/11/08 00:43:28;;;;;;;3.08;1.23;;;;;;;;;;5113660;28;20437;-52
2021/11/08 00:45:54;;;;;;;2.35;1.33;;;;;;;;;;5114249;28;20456;-53
2021/11/08 00:48:24;;;;;;;3.65;1.40;;;;;;;;;;5114464;28;20441;-52
2021/11/08 00:50:51;;;;;;;3.88;1.40;;;;;;;;;;5114977;28;20020;-52
2021/11/08 00:53:18;;;;;;;2.22;1.30;;;;;;;;;;5113522;28;20035;-52
2021/11/08 00:55:46;;;;;;;2.45;1.48;;;;;;;;;;5114496;28;20036;-52
2021/11/08 00:58:26;;;;;;;2.28;1.42;;;;;;;;;;5114228;28;20019;-52
2021/11/08 01:00:52;;;;;;;2.92;1.90;;;;;;;;;;5114338;28;20111;-52
2021/11/08 01:03:21;;;;;;;6.03;1.50;;;;;;;;;;5113860;28;20027;-52
2021/11/08 01:05:48;;;;;;;3.33;1.48;;;;;;;;;;5114559;28;20073;-52
2021/11/08 01:08:14;;;;;;;3.92;1.50;;;;;;;;;;5114322;28;20015;-52
2021/11/08 01:10:40;;;;;;;6.57;1.95;;;;;;;;;;5113997;28;20030;-52
2021/11/08 01:13:06;;;;;;;5.30;2.00;;;;;;;;;;5112997;28;20353;-52
2021/11/08 01:15:32;;;;;;;2.67;1.60;;;;;;;;;;5114154;28;20031;-52
2021/11/08 01:17:58;;;;;;;2.22;1.13;;;;;;;;;;5114189;28;20030;-52
2021/11/08 01:20:31;;;;;;;3.13;1.40;;;;;;;;;;5114209;28;20353;-52
2021/11/08 01:22:58;;;;;;;2.53;1.40;;;;;;;;;;5113320;28;20027;-52
2021/11/08 01:25:24;;;;;;;8.30;2.10;;;;;;;;;;5113561;28;20058;-52
2021/11/08 01:27:54;;;;;;;4.53;1.80;;;;;;;;;;5095720;28;20054;-52
2021/11/08 01:30:24;;;;;;;7.70;2.00;;;;;;;;;;5111994;28;20063;-52
2021/11/08 01:35:37;;;;;;;3.83;1.50;;;;;;;;;;5113351;28;20031;-52
2021/11/08 01:38:10;;;;;;;7.00;1.95;;;;;;;;;;5113813;28;20024;-52
2021/11/08 01:40:37;;;;;;;3.15;1.50;;;;;;;;;;5113949;28;20073;-52
2021/11/08 01:43:04;;;;;;;3.60;1.90;;;;;;;;;;5113133;28;20058;-52
2021/11/08 01:45:30;;;;;;;3.97;1.40;;;;;;;;;;5113651;28;20030;-52
2021/11/08 01:47:56;;;;;;;3.30;1.50;;;;;;;;;;5113227;28;20117;-52
2021/11/08 01:50:23;;;;;;;2.28;1.30;;;;;;;;;;5113623;28;20027;-52
2021/11/08 01:52:50;;;;;;;2.38;1.30;;;;;;;;;;5113619;28;20024;-52
2021/11/08 01:55:16;;;;;;;2.80;1.48;;;;;;;;;;5112988;28;20066;-52
2021/11/08 01:57:42;;;;;;;6.82;2.00;;;;;;;;;;5113492;28;20058;-53
2021/11/08 02:00:09;;;;;;;4.13;1.55;;;;;;;;;;5113606;28;20027;-52
2021/11/08 02:02:35;;;;;;;3.70;1.85;;;;;;;;;;5112822;28;20023;-53
2021/11/08 02:05:02;;;;;;;9.00;2.25;;;;;;;;;;5112637;28;20047;-52
2021/11/08 02:07:29;;;;;;;3.92;1.90;;;;;;;;;;5112029;28;20020;-52
2021/11/08 02:09:55;;;;;;;5.03;2.15;;;;;;;;;;5113190;28;20027;-52
2021/11/08 02:12:21;;;;;;;3.10;1.75;;;;;;;;;;5113673;28;20071;-53
2021/11/08 02:14:48;;;;;;;6.00;1.73;;;;;;;;;;5112157;28;20452;-52
2021/11/08 02:17:14;;;;;;;7.38;1.77;;;;;;;;;;5111246;28;20441;-52
2021/11/08 02:19:41;;;;;;;1.90;1.27;;;;;;;;;;5112835;28;20059;-52
2021/11/08 02:22:07;;;;;;;4.35;1.73;;;;;;;;;;5113806;28;20031;-52
2021/11/08 02:24:35;;;;;;;7.78;1.52;;;;;;;;;;5112393;28;20031;-52
2021/11/08 02:27:01;;;;;;;5.80;1.48;;;;;;;;;;5113022;28;20024;-52
2021/11/08 02:29:28;;;;;;;2.67;1.13;;;;;;;;;;5113010;28;20019;-52
2021/11/08 02:31:56;;;;;;;6.63;2.55;;;;;;;;;;5113024;28;20074;-52
2021/11/08 02:34:23;;;;;;;7.05;1.50;;;;;;;;;;5112602;28;20051;-52
2021/11/08 02:36:49;;;;;;;6.03;1.63;;;;;;;;;;5117332;28;20027;-52
2021/11/08 02:39:24;;;;;;;2.17;1.20;;;;;;;;;;5117465;28;20016;-52
2021/11/08 02:41:50;;;;;;;4.70;1.80;;;;;;;;;;5116757;28;20043;-52
2021/11/08 02:44:16;;;;;;;3.10;1.63;;;;;;;;;;5116310;28;20019;-52
2021/11/08 02:46:42;;;;;;;3.83;1.45;;;;;;;;;;5116785;28;20027;-52
2021/11/08 02:49:12;;;;;;;4.30;1.60;;;;;;;;;;5117057;28;20159;-52
2021/11/08 02:51:43;;;;;;;2.97;1.80;;;;;;;;;;5116512;28;20461;-52
2021/11/08 02:54:23;;;;;;;5.53;1.80;;;;;;;;;;5116313;28;20036;-52
2021/11/08 02:56:50;;;;;;;3.47;1.60;;;;;;;;;;5117307;28;20078;-52
2021/11/08 02:59:16;;;;;;;4.45;1.48;;;;;;;;;;5116329;28;20047;-52
2021/11/08 03:01:45;;;;;;;4.43;1.73;;;;;;;;;;5116650;28;20027;-52
2021/11/08 03:04:17;;;;;;;6.95;2.55;;;;;;;;;;5115954;28;20035;-52
2021/11/08 03:06:44;;;;;;;8.27;2.17;;;;;;;;;;5116505;28;20028;-52
2021/11/08 03:09:17;;;;;;;2.25;1.10;;;;;;;;;;5117021;28;20463;-52
2021/11/08 03:11:43;;;;;;;7.85;1.75;;;;;;;;;;5116376;28;20031;-52
2021/11/08 03:14:14;;;;;;;11.10;2.42;;;;;;;;;;5115508;28;20032;-52
2021/11/08 03:16:48;;;;;;;5.07;1.83;;;;;;;;;;5114353;28;20106;-52
2021/11/08 03:19:18;;;;;;;5.53;2.13;;;;;;;;;;5116305;28;20453;-52
2021/11/08 03:21:45;;;;;;;9.73;1.90;;;;;;;;;;5116149;28;20027;-52
2021/11/08 03:24:20;;;;;;;6.32;2.35;;;;;;;;;;5115783;28;20402;-52
2021/11/08 03:26:49;;;;;;;4.95;2.17;;;;;;;;;;5116661;28;20028;-52
2021/11/08 03:29:16;;;;;;;7.30;1.98;;;;;;;;;;5116206;28;20028;-52
2021/11/08 03:31:46;;;;;;;1.98;1.45;;;;;;;;;;5115890;28;20070;-52
2021/11/08 03:34:13;;;;;;;7.75;1.70;;;;;;;;;;5115254;28;20032;-52
2021/11/08 03:36:39;;;;;;;4.03;1.75;;;;;;;;;;5115969;28;20043;-52
2021/11/08 03:39:06;;;;;;;2.03;1.33;;;;;;;;;;5115754;28;20023;-53
2021/11/08 03:41:33;;;;;;;2.85;1.40;;;;;;;;;;5115840;28;20355;-53
2021/11/08 03:44:00;;;;;;;3.95;1.45;;;;;;;;;;5115767;28;20024;-52
2021/11/08 03:46:26;;;;;;;3.20;1.38;;;;;;;;;;5114741;28;20024;-52
2021/11/08 03:48:52;;;;;;;4.50;1.38;;;;;;;;;;5115104;28;20443;-52
2021/11/08 03:51:18;;;;;;;1.20;1.10;;;;;;;;;;5094659;28;20059;-52
2021/11/08 03:53:44;;;;;;;4.20;1.98;;;;;;;;;;5094079;28;20027;-52
2021/11/08 03:56:10;;;;;;;6.63;2.05;;;;;;;;;;5095045;28;20473;-52
2021/11/08 03:58:36;;;;;;;6.75;1.52;;;;;;;;;;5095384;28;20020;-53
2021/11/08 04:01:03;;;;;;;9.13;1.70;;;;;;;;;;5095146;28;20020;-52
2021/11/08 04:03:30;;;;;;;4.28;1.77;;;;;;;;;;5094231;28;20024;-52
2021/11/08 04:05:56;;;;;;;8.48;2.42;;;;;;;;;;5095003;28;20027;-52
2021/11/08 04:08:22;;;;;;;5.90;1.30;;;;;;;;;;5094684;28;20365;-52
2021/11/08 04:10:52;;;;;;;6.88;1.75;;;;;;;;;;5095139;28;20110;-52
2021/11/08 04:13:19;;;;;;;5.47;1.48;;;;;;;;;;5094191;28;20076;-52
2021/11/08 04:15:46;;;;;;;3.03;1.70;;;;;;;;;;5092733;28;20040;-52
2021/11/08 04:18:15;;;;;;;11.38;2.30;;;;;;;;;;5094662;28;20028;-53
2021/11/08 04:20:42;;;;;;;4.65;2.15;;;;;;;;;;5094976;28;20031;-52
2021/11/08 04:23:09;;;;;;;7.88;1.55;;;;;;;;;;5094144;28;20577;-52
2021/11/08 04:25:35;;;;;;;9.45;2.13;;;;;;;;;;5094816;28;20464;-52
2021/11/08 04:28:02;;;;;;;8.15;2.40;;;;;;;;;;5094333;28;20323;-52
2021/11/08 04:30:30;;;;;;;4.78;2.63;;;;;;;;;;5094446;28;20477;-53
2021/11/08 04:46:27;;;;;;;9.82;2.30;;;;;;;;;;5114856;28;20034;-52
2021/11/08 05:24:13;;;;;;;4.75;2.15;;;;;;;;;;5113221;28;20118;-52
2021/11/08 05:31:47;;;;;;;3.95;1.75;;;;;;;;;;5113622;28;20040;-52
2021/11/08 05:34:14;;;;;;;5.05;2.13;;;;;;;;;;5112677;28;20031;-52
2021/11/08 05:36:42;;;;;;;5.10;1.85;;;;;;;;;;5113300;28;20056;-52
2021/11/08 05:39:10;;;;;;;4.13;2.22;;;;;;;;;;5113503;28;20019;-52
2021/11/08 05:41:36;;;;;;;6.30;1.80;;;;;;;;;;5113768;28;20107;-52
2021/11/08 05:44:03;;;;;;;3.08;1.98;;;;;;;;;;5112735;28;20467;-52
2021/11/08 05:46:30;;;;;;;2.80;1.75;;;;;;;;;;5113548;28;20069;-52
2021/11/08 05:48:56;;;;;;;5.18;2.00;;;;;;;;;;5112406;28;20103;-52
2021/11/08 05:51:23;;;;;;;3.95;2.17;;;;;;;;;;5113029;28;20024;-52
2021/11/08 05:53:50;;;;;;;4.60;2.30;;;;;;;;;;5112808;28;20060;-52
2021/11/08 05:56:32;;;;;;;3.55;2.42;;;;;;;;;;5113571;28;20106;-52
2021/11/08 06:50:59;;;;;;;5.35;2.17;;;;;;;;;;5112721;28;20039;-51
2021/11/08 06:53:25;;;;;;;8.48;2.58;;;;;;;;;;5111842;28;20028;-50
2021/11/08 06:55:53;;;;;;;9.77;3.20;;;;;;;;;;5113030;28;20028;-50
2021/11/08 06:58:22;;;;;;;7.22;2.70;;;;;;;;;;5112985;28;20050;-50
2021/11/08 07:00:48;;;;;;;4.15;2.38;;;;;;;;;;5112901;28;20028;-50
2021/11/08 07:03:15;;;;;;;5.95;2.30;;;;;;;;;;5112215;28;20046;-50
2021/11/08 07:05:41;;;;;;;4.07;2.22;;;;;;;;;;5112268;28;20024;-50
2021/11/08 07:08:07;;;;;;;4.20;1.90;;;;;;;;;;5112778;28;20101;-50
2021/11/08 07:10:33;;;;;;;7.13;2.40;;;;;;;;;;5113108;28;20077;-50
2021/11/08 07:13:00;;;;;;;5.85;3.50;;;;;;;;;;5112141;28;20027;-51
2021/11/08 07:15:26;;;;;;;7.63;2.95;;;;;;;;;;5112372;28;20035;-50
2021/11/08 07:17:53;;;;;;;13.27;2.88;;;;;;;;;;5110435;28;20103;-51
2021/11/08 07:20:19;;;;;;;6.63;2.75;;;;;;;;;;5112023;28;20024;-50
2021/11/08 07:22:45;;;;;;;6.13;2.88;;;;;;;;;;5116027;28;20102;-50
2021/11/08 07:25:12;;;;;;;11.50;2.67;;;;;;;;;;5115274;28;20023;-51
2021/11/08 07:27:38;;;;;;;6.40;2.50;;;;;;;;;;5116257;28;20020;-51
2021/11/08 07:30:05;;;;;;;12.88;2.60;;;;;;;;;;5116153;28;20023;-51
2021/11/08 07:32:31;;;;;;;13.70;2.45;;;;;;;;;;5115927;28;20552;-51
2021/11/08 07:34:58;;;;;;;6.25;2.20;;;;;;;;;;5115396;28;20036;-51
2021/11/08 07:37:24;;;;;;;8.65;2.20;;;;;;;;;;5115488;28;20023;-51
2021/11/08 07:39:50;;;;;;;8.48;2.83;;;;;;;;;;5115964;28;20449;-50
2021/11/08 07:42:17;;;;;;;12.20;2.45;;;;;;;;;;5116081;28;20019;-50
2021/11/08 07:44:43;;;;;;;12.30;2.08;;;;;;;;;;5114673;28;20456;-51
2021/11/08 07:47:09;;;;;;;6.50;2.08;;;;;;;;;;5113987;28;20030;-50
2021/11/08 07:49:35;;;;;;;7.85;2.22;;;;;;;;;;5113864;28;20382;-50
2021/11/08 07:52:01;;;;;;;10.30;2.67;;;;;;;;;;5113496;28;20306;-51
2021/11/08 07:54:32;;;;;;;7.93;2.65;;;;;;;;;;5113278;28;20047;-50
2021/11/08 07:56:58;;;;;;;6.70;2.78;;;;;;;;;;5114239;28;20020;-50
2021/11/08 07:59:24;;;;;;;7.82;2.42;;;;;;;;;;5113154;28;20433;-50
2021/11/08 08:01:50;;;;;;;8.52;2.25;;;;;;;;;;5113799;28;20034;-50
2021/11/08 08:04:17;;;;;;;7.68;3.00;;;;;;;;;;5112943;28;20379;-50
2021/11/08 08:06:44;;;;;;;4.93;2.40;;;;;;;;;;5113441;28;20027;-50
2021/11/08 08:09:10;;;;;;;6.20;2.55;;;;;;;;;;5113750;28;20102;-51
2021/11/08 08:11:36;;;;;;;7.97;3.05;;;;;;;;;;5113725;28;20034;-51
2021/11/08 08:14:02;;;;;;;3.72;2.33;;;;;;;;;;5109969;27;20042;-51
2021/11/08 08:16:28;;;;;;;5.38;2.63;;;;;;;;;;5110610;27;20027;-51
2021/11/08 08:18:54;;;;;;;3.10;1.83;;;;;;;;;;5133200;27;20024;-50
2021/11/08 08:21:21;;;;;;;4.60;2.95;;;;;;;;;;5132393;27;20561;-51
2021/11/08 08:23:53;;;;;;;8.55;3.40;;;;;;;;;;5112294;28;20110;-51
2021/11/08 08:26:20;;;;;;;13.88;3.67;;;;;;;;;;5113418;28;20028;-51
2021/11/08 08:28:46;;;;;;;3.90;2.03;;;;;;;;;;5112998;28;20038;-51
2021/11/08 08:31:12;;;;;;;10.27;2.83;;;;;;;;;;5112411;28;20023;-51
2021/11/08 08:33:38;;;;;;;8.10;2.20;;;;;;;;;;5111654;28;20030;-51
2021/11/08 08:36:05;;;;;;;8.82;2.10;;;;;;;;;;5107974;28;20059;-51
2021/11/08 08:38:32;;;;;;;6.93;2.00;;;;;;;;;;5107538;27;20078;-51
2021/11/08 08:40:58;;;;;;;3.45;1.63;;;;;;;;;;5121379;27;20056;-50
2021/11/08 08:43:26;;;;;;;5.38;2.20;;;;;;;;;;5111826;28;20446;-51
2021/11/08 08:45:53;;;;;;;10.40;2.35;;;;;;;;;;5093643;27;20039;-51
2021/11/08 08:48:19;;;;;;;8.40;2.42;;;;;;;;;;5092331;28;20051;-51
2021/11/08 08:50:45;;;;;;;5.15;2.72;;;;;;;;;;5091953;28;20036;-50
2021/11/08 08:53:12;;;;;;;10.98;2.53;;;;;;;;;;5090588;28;20039;-50
2021/11/08 08:55:39;;;;;;;11.07;2.03;;;;;;;;;;5091927;28;20110;-51
2021/11/08 08:58:06;;;;;;;18.02;2.95;;;;;;;;;;5092115;28;20020;-51
2021/11/08 09:00:33;;;;;;;14.45;2.42;;;;;;;;;;5100913;28;20027;-50
2021/11/08 09:02:59;;;;;;;8.00;1.92;;;;;;;;;;5111995;28;20020;-51
2021/11/08 09:05:25;;;;;;;3.67;1.45;;;;;;;;;;5107859;28;20034;-51
2021/11/08 09:07:52;;;;;;;4.28;1.50;;;;;;;;;;5111605;28;20020;-50
2021/11/08 09:10:19;;;;;;;7.93;2.55;;;;;;;;;;5112480;28;20015;-51
2021/11/08 09:12:45;;;;;;;8.05;2.17;;;;;;;;;;5112005;28;20027;-51
2021/11/08 09:15:12;;;;;;;14.05;2.63;;;;;;;;;;5110660;28;20036;-51
2021/11/08 09:17:38;;;;;;;7.13;2.45;;;;;;;;;;5109715;28;20479;-50
2021/11/08 09:20:05;;;;;;;6.97;2.63;;;;;;;;;;5103683;28;20031;-51
2021/11/08 09:22:31;;;;;;;5.60;1.90;;;;;;;;;;5107884;28;20030;-51
2021/11/08 09:24:57;;;;;;;15.38;2.72;;;;;;;;;;5120368;27;20023;-51
2021/11/08 09:27:23;;;;;;;12.00;2.15;;;;;;;;;;5115048;27;20039;-51
2021/11/08 09:29:49;;;;;;;7.28;2.25;;;;;;;;;;5110363;27;20373;-51
2021/11/08 09:32:15;;;;;;;9.70;3.47;;;;;;;;;;5111582;28;20039;-50
2021/11/08 09:34:46;;;;;;;12.43;2.70;;;;;;;;;;5107212;27;20051;-50
2021/11/08 09:37:15;;;;;;;11.95;2.95;;;;;;;;;;5101586;28;20461;-50
2021/11/08 09:39:42;;;;;;;7.97;2.30;;;;;;;;;;5111367;28;20290;-51
2021/11/08 09:42:10;;;;;;;6.10;2.25;;;;;;;;;;5123517;27;20042;-51
2021/11/08 09:44:36;;;;;;;8.25;2.58;;;;;;;;;;5090171;28;20190;-50
2021/11/08 09:47:02;;;;;;;12.15;2.75;;;;;;;;;;5109216;28;20096;-51
2021/11/08 09:49:28;;;;;;;6.30;2.08;;;;;;;;;;5110500;28;20106;-50
2021/11/08 09:51:54;;;;;;;7.43;2.40;;;;;;;;;;5108251;28;20339;-50
2021/11/08 09:54:27;;;;;;;10.88;2.38;;;;;;;;;;5110659;28;20046;-51
2021/11/08 09:56:53;;;;;;;9.30;2.08;;;;;;;;;;5111190;28;20028;-51
2021/11/08 09:59:21;;;;;;;14.90;3.13;;;;;;;;;;5108716;28;20070;-50
2021/11/08 10:01:48;;;;;;;10.20;2.42;;;;;;;;;;5110956;28;20037;-51
2021/11/08 10:04:14;;;;;;;12.23;2.30;;;;;;;;;;5101824;28;20028;-51
2021/11/08 10:06:41;;;;;;;8.45;2.40;;;;;;;;;;5105819;28;20023;-51
2021/11/08 10:09:08;;;;;;;7.95;2.38;;;;;;;;;;5097321;28;20140;-51
2021/11/08 10:11:35;;;;;;;10.32;2.40;;;;;;;;;;5090615;28;20019;-51
2021/11/08 10:14:01;;;;;;;13.43;2.72;;;;;;;;;;5090215;28;20020;-50
2021/11/08 10:16:30;;;;;;;9.00;2.30;;;;;;;;;;5102409;28;20112;-51
2021/11/08 10:18:57;;;;;;;2.35;1.70;;;;;;;;;;5108900;28;20058;-51
2021/11/08 10:21:31;;;;;;;15.02;2.35;;;;;;;;;;5110335;28;20571;-51
2021/11/08 10:23:59;;;;;;;5.75;2.05;;;;;;;;;;5110153;28;20416;-51
2021/11/08 10:26:27;;;;;;;8.20;2.53;;;;;;;;;;5111006;28;20402;-51
2021/11/08 10:28:55;;;;;;;9.85;2.00;;;;;;;;;;5111073;28;20020;-50
2021/11/08 10:31:24;;;;;;;16.25;1.90;;;;;;;;;;5108281;28;20473;-50
2021/11/08 10:33:52;;;;;;;12.03;2.57;;;;;;;;;;5110010;28;20035;-51
2021/11/08 10:36:20;;;;;;;7.75;1.90;;;;;;;;;;5111211;28;20024;-51
2021/11/08 10:38:47;;;;;;;6.53;1.90;;;;;;;;;;5110612;28;20101;-51
2021/11/08 10:41:13;;;;;;;5.07;1.52;;;;;;;;;;5110435;28;20027;-51
2021/11/08 10:43:41;;;;;;;5.20;1.70;;;;;;;;;;5110338;28;20012;-51
2021/11/08 10:46:09;;;;;;;5.20;1.77;;;;;;;;;;5110469;28;20028;-51
2021/11/08 10:48:44;;;;;;;12.82;2.42;;;;;;;;;;5110515;28;20220;-50
2021/11/08 10:51:12;;;;;;;10.73;1.98;;;;;;;;;;5110515;28;20028;-51
2021/11/08 10:53:57;;;;;;;11.38;1.90;;;;;;;;;;5110075;28;20044;-51
2021/11/08 10:56:27;;;;;;;11.35;2.35;;;;;;;;;;5112520;28;20039;-51
2021/11/08 10:58:53;;;;;;;;;;;;;;;;;;5115752;28;20097;-51
2021/11/08 11:01:25;;;;;;;8.50;1.92;;;;;;;;;;5114069;28;20151;-51
2021/11/08 11:03:52;;;;;;;11.10;2.28;;;;;;;;;;5113426;28;20054;-51
2021/11/08 11:06:19;;;;;;;5.82;1.52;;;;;;;;;;5114449;28;20102;-51
2021/11/08 11:08:50;;;;;;;4.22;1.60;;;;;;;;;;5114795;28;20031;-51
2021/11/08 11:11:17;;;;;;;3.50;1.48;;;;;;;;;;5114064;28;20118;-51
2021/11/08 11:13:50;;;;;;;8.95;2.53;;;;;;;;;;5113726;28;20516;-51
2021/11/08 11:16:16;;;;;;;14.60;2.35;;;;;;;;;;5113324;27;20098;-50
2021/11/08 11:18:42;;;;;;;7.10;2.33;;;;;;;;;;5114030;28;20020;-51
2021/11/08 11:21:18;;;;;;;10.30;1.65;;;;;;;;;;5114238;28;20093;-51
2021/11/08 11:23:45;;;;;;;7.18;2.20;;;;;;;;;;5113266;28;20348;-51
2021/11/08 11:26:12;;;;;;;3.40;1.27;;;;;;;;;;5113480;28;20357;-50
2021/11/08 11:28:41;;;;;;;7.68;2.10;;;;;;;;;;5113905;28;20023;-51
2021/11/08 11:31:11;;;;;;;7.72;1.50;;;;;;;;;;5113733;28;20049;-50
2021/11/08 11:33:37;;;;;;;7.07;1.90;;;;;;;;;;5112552;28;20019;-51
2021/11/08 11:36:08;;;;;;;8.50;1.63;;;;;;;;;;5114180;28;20070;-50
2021/11/08 11:38:40;;;;;;;4.03;1.60;;;;;;;;;;5113826;28;20387;-51
2021/11/08 11:41:12;;;;;;;3.92;1.13;;;;;;;;;;5113407;28;20023;-50
2021/11/08 11:43:45;;;;;;;7.88;1.38;;;;;;;;;;5113431;28;20023;-50
2021/11/08 11:46:30;;;;;;;4.97;1.27;;;;;;;;;;5113418;28;20047;-50
2021/11/08 11:48:57;;;;;;;2.38;1.23;;;;;;;;;;5113337;28;20331;-51
2021/11/08 11:51:27;;;;;;;3.58;1.00;;;;;;;;;;5114103;28;20047;-51
2021/11/08 11:53:54;;;;;;;15.18;2.58;;;;;;;;;;5113027;28;20028;-50
2021/11/08 11:56:21;;;;;;;5.28;1.80;;;;;;;;;;5113019;28;20493;-51
2021/11/08 11:58:48;;;;;;;8.38;2.83;;;;;;;;;;5113551;28;20031;-51
2021/11/08 12:01:15;;;;;;;9.30;2.10;;;;;;;;;;5113109;28;20061;-50
2021/11/08 12:03:42;;;;;;;7.75;2.10;;;;;;;;;;5112575;28;20099;-51
2021/11/08 12:06:11;;;;;;;16.40;2.03;;;;;;;;;;5113067;28;20069;-51
2021/11/08 12:08:38;;;;;;;12.25;2.10;;;;;;;;;;5112328;28;20085;-51
2021/11/08 12:11:05;;;;;;;5.72;1.88;;;;;;;;;;5112674;28;20106;-51
2021/11/08 12:13:32;;;;;;;5.47;1.77;;;;;;;;;;5112304;28;20027;-50
2021/11/08 12:16:18;;;;;;;11.45;2.55;;;;;;;;;;5113291;28;20039;-51
2021/11/08 12:18:46;;;;;;;4.30;1.33;;;;;;;;;;5091025;28;20029;-51
2021/11/08 12:21:24;;;;;;;6.13;2.50;;;;;;;;;;5092657;28;20036;-50
2021/11/08 12:23:51;;;;;;;10.40;1.95;;;;;;;;;;5091733;28;20744;-51
2021/11/08 12:26:19;;;;;;;9.45;2.17;;;;;;;;;;5092293;28;20078;-50
2021/11/08 12:28:47;;;;;;;8.43;1.70;;;;;;;;;;5092398;28;20017;-51
2021/11/08 12:31:19;;;;;;;7.97;2.40;;;;;;;;;;5092606;28;20036;-51
2021/11/08 12:33:45;;;;;;;4.20;1.48;;;;;;;;;;5091843;28;20158;-51
2021/11/08 12:36:11;;;;;;;3.13;1.25;;;;;;;;;;5096366;28;20028;-51
2021/11/08 12:38:38;;;;;;;6.07;1.65;;;;;;;;;;5113113;28;20305;-51
2021/11/08 12:41:13;;;;;;;10.82;2.47;;;;;;;;;;5112352;28;20031;-51
2021/11/08 12:43:41;;;;;;;6.47;1.70;;;;;;;;;;5112309;28;20352;-51
2021/11/08 12:46:10;;;;;;;3.92;1.58;;;;;;;;;;5112686;28;20085;-51
2021/11/08 12:48:37;;;;;;;4.18;1.23;;;;;;;;;;5112417;28;20059;-51
2021/11/08 12:51:03;;;;;;;5.72;1.27;;;;;;;;;;5112759;28;20097;-51
2021/11/08 12:53:30;;;;;;;7.97;0.85;;;;;;;;;;5111737;28;20019;-51
2021/11/08 12:55:58;;;;;;;4.95;1.27;;;;;;;;;;5111540;28;20039;-51
2021/11/08 12:58:46;;;;;;;7.82;1.80;;;;;;;;;;5112446;28;20495;-51
2021/11/08 13:01:20;;;;;;;4.32;1.23;;;;;;;;;;5112233;28;20035;-51
2021/11/08 13:03:48;;;;;;;2.55;1.20;;;;;;;;;;5111285;28;20427;-51
2021/11/08 13:06:28;;;;;;;10.88;1.92;;;;;;;;;;5112542;28;20034;-50
2021/11/08 13:09:09;;;;;;;6.43;1.20;;;;;;;;;;5111168;28;20023;-51
2021/11/08 13:11:37;;;;;;;2.17;1.15;;;;;;;;;;5112525;28;20024;-51
2021/11/08 13:14:05;;;;;;;7.70;1.15;;;;;;;;;;5111797;28;20023;-51
2021/11/08 13:16:41;;;;;;;4.88;1.55;;;;;;;;;;5111244;28;20043;-50
2021/11/08 13:19:12;;;;;;;3.75;1.67;;;;;;;;;;5089998;28;20023;-51
2021/11/08 13:21:39;;;;;;;2.00;0.98;;;;;;;;;;5091669;28;20063;-51
2021/11/08 13:24:06;;;;;;;6.10;1.38;;;;;;;;;;5090531;28;20055;-51
2021/11/08 13:26:33;;;;;;;3.90;1.48;;;;;;;;;;5091634;28;20012;-51
2021/11/08 13:29:00;;;;;;;6.65;1.52;;;;;;;;;;5091522;28;20059;-51
2021/11/08 13:31:26;;;;;;;12.52;2.00;;;;;;;;;;5091190;28;20028;-51
2021/11/08 13:33:54;;;;;;;5.53;1.25;;;;;;;;;;5108739;28;20445;-51
2021/11/08 13:36:21;;;;;;;3.63;1.75;;;;;;;;;;5111676;28;20097;-51
2021/11/08 13:38:54;;;;;;;6.57;1.40;;;;;;;;;;5110929;28;20030;-50
2021/11/08 13:41:20;;;;;;;12.10;1.83;;;;;;;;;;5111393;28;20070;-50
2021/11/08 13:43:46;;;;;;;5.88;1.55;;;;;;;;;;5110968;28;20043;-51
2021/11/08 13:46:12;;;;;;;3.67;1.25;;;;;;;;;;5111358;28;20429;-51
2021/11/08 13:48:49;;;;;;;2.70;1.35;;;;;;;;;;5110957;28;20038;-52
2021/11/08 13:51:20;;;;;;;9.15;2.45;;;;;;;;;;5109258;28;20116;-51
2021/11/08 13:53:50;;;;;;;10.38;1.77;;;;;;;;;;5116280;27;20487;-51
2021/11/08 13:56:17;;;;;;;3.58;1.58;;;;;;;;;;5126372;27;20027;-51
2021/11/08 13:58:48;;;;;;;4.22;2.08;;;;;;;;;;5132122;27;20080;-51
2021/11/08 14:01:14;;;;;;;11.88;2.22;;;;;;;;;;5113195;27;20027;-51
2021/11/08 14:03:45;;;;;;;4.43;1.98;;;;;;;;;;5115414;27;20032;-51
2021/11/08 14:06:15;;;;;;;8.98;1.75;;;;;;;;;;5111339;28;20680;-51
2021/11/08 14:08:46;;;;;;;6.30;1.95;;;;;;;;;;5110739;28;20036;-51
2021/11/08 14:11:12;;;;;;;12.07;1.63;;;;;;;;;;5111374;28;20027;-50
2021/11/08 14:13:40;;;;;;;3.15;1.50;;;;;;;;;;5110659;28;20353;-51
2021/11/08 14:16:08;;;;;;;7.82;1.85;;;;;;;;;;5110491;28;20036;-51
2021/11/08 14:18:34;;;;;;;11.80;1.63;;;;;;;;;;5108534;28;20034;-51
2021/11/08 14:21:07;;;;;;;4.05;1.55;;;;;;;;;;5113863;28;20024;-51
2021/11/08 14:23:34;;;;;;;13.20;1.48;;;;;;;;;;5125366;28;20015;-51
2021/11/08 14:26:12;;;;;;;8.85;1.60;;;;;;;;;;5126523;28;20102;-50
2021/11/08 14:28:38;;;;;;;6.90;1.73;;;;;;;;;;5126692;28;20090;-51
2021/11/08 14:31:15;;;;;;;11.60;1.83;;;;;;;;;;5132625;27;20059;-51
2021/11/08 14:33:41;;;;;;;8.82;1.58;;;;;;;;;;5121352;27;20039;-51
2021/11/08 14:36:17;;;;;;;3.97;1.73;;;;;;;;;;5114988;28;20435;-51
2021/11/08 14:38:52;;;;;;;6.60;2.08;;;;;;;;;;5129618;27;20011;-51
2021/11/08 14:41:18;;;;;;;4.50;1.38;;;;;;;;;;5135945;27;20027;-51
2021/11/08 14:43:45;;;;;;;7.82;1.58;;;;;;;;;;5134170;27;20019;-52
2021/11/08 14:46:14;;;;;;;10.80;1.15;;;;;;;;;;5135139;27;20027;-52
2021/11/08 14:48:41;;;;;;;12.55;1.52;;;;;;;;;;5110014;27;20162;-52
2021/11/08 14:51:10;;;;;;;4.90;1.83;;;;;;;;;;5114607;28;20361;-52
2021/11/08 14:53:37;;;;;;;5.00;1.67;;;;;;;;;;5113667;28;20165;-52
2021/11/08 14:56:14;;;;;;;10.70;1.52;;;;;;;;;;5114209;27;20117;-52
2021/11/08 14:58:41;;;;;;;5.85;1.77;;;;;;;;;;5094224;28;20063;-52
2021/11/08 15:01:06;;;;;;;9.45;2.10;;;;;;;;;;5093851;28;20468;-52
2021/11/08 15:03:32;;;;;;;3.90;1.40;;;;;;;;;;5102550;28;20027;-52
2021/11/08 15:05:58;;;;;;;10.98;1.52;;;;;;;;;;5114603;28;20024;-52
2021/11/08 15:08:25;;;;;;;4.97;1.88;;;;;;;;;;5114019;28;20024;-52
2021/11/08 15:10:55;;;;;;;13.95;2.55;;;;;;;;;;5114601;28;20060;-52
2021/11/08 15:13:22;;;;;;;11.52;2.08;;;;;;;;;;5095040;28;20023;-52
2021/11/08 15:15:49;;;;;;;6.57;1.85;;;;;;;;;;5113657;28;20042;-52
2021/11/08 15:18:18;;;;;;;8.40;1.90;;;;;;;;;;5113702;28;20055;-52
2021/11/08 15:20:49;;;;;;;3.88;2.13;;;;;;;;;;5113095;28;20403;-52
2021/11/08 15:23:20;;;;;;;10.80;2.45;;;;;;;;;;5113102;28;20034;-52
2021/11/08 15:25:50;;;;;;;9.13;1.85;;;;;;;;;;5113719;28;20510;-52
2021/11/08 15:28:16;;;;;;;;;;;;;;;;;;5115921;27;20020;-51
2021/11/08 15:30:47;;;;;;;4.28;1.85;;;;;;;;;;5134080;27;19934;-52
2021/11/08 15:33:19;;;;;;;11.35;1.60;;;;;;;;;;5128938;27;20413;-52
2021/11/08 15:35:48;;;;;;;4.22;2.00;;;;;;;;;;5113872;28;20043;-52
2021/11/08 15:38:15;;;;;;;9.90;2.60;;;;;;;;;;5113867;28;20020;-52
2021/11/08 15:40:42;;;;;;;3.45;1.98;;;;;;;;;;5113921;28;20039;-52
2021/11/08 15:43:08;;;;;;;13.77;2.47;;;;;;;;;;5113394;28;20375;-52
2021/11/08 15:45:39;;;;;;;11.65;2.45;;;;;;;;;;5112807;28;20437;-52
2021/11/08 15:48:05;;;;;;;3.83;1.83;;;;;;;;;;5112821;28;20042;-52
2021/11/08 15:50:31;;;;;;;5.20;2.03;;;;;;;;;;5111687;28;20110;-52
2021/11/08 15:52:57;;;;;;;6.68;1.83;;;;;;;;;;5102373;28;20119;-51
2021/11/08 15:55:25;;;;;;;12.63;2.42;;;;;;;;;;5101674;28;20036;-52
2021/11/08 15:57:52;;;;;;;3.53;2.22;;;;;;;;;;5102097;28;20024;-52
2021/11/08 16:00:17;;;;;;;5.35;1.83;;;;;;;;;;5102081;28;20020;-51
2021/11/08 16:02:43;;;;;;;10.80;2.40;;;;;;;;;;5104391;28;20085;-52
2021/11/08 16:05:10;;;;;;;11.50;1.60;;;;;;;;;;5101555;28;20210;-52
2021/11/08 16:07:36;;;;;;;12.18;2.13;;;;;;;;;;5102513;28;20016;-52
2021/11/08 16:10:02;;;;;;;11.85;2.58;;;;;;;;;;5103631;28;20027;-52
2021/11/08 16:12:28;;;;;;;11.52;1.92;;;;;;;;;;5092571;28;20359;-52
2021/11/08 16:14:55;;;;;;;11.63;2.17;;;;;;;;;;5091764;28;20233;-52
2021/11/08 16:17:21;;;;;;;11.63;2.38;;;;;;;;;;5093222;28;20023;-51
2021/11/08 16:19:47;;;;;;;10.63;2.78;;;;;;;;;;5104676;28;20455;-52
2021/11/08 16:22:13;;;;;;;11.45;2.63;;;;;;;;;;5113029;28;20023;-52
2021/11/08 16:24:39;;;;;;;16.67;1.90;;;;;;;;;;5112337;28;20020;-52
2021/11/08 16:27:05;;;;;;;7.40;2.05;;;;;;;;;;5113115;28;20035;-52
2021/11/08 16:29:31;;;;;;;13.48;2.42;;;;;;;;;;5124214;27;20027;-52
2021/11/08 16:32:03;;;;;;;7.65;2.55;;;;;;;;;;5133249;27;20038;-52
2021/11/08 16:34:29;;;;;;;7.80;2.55;;;;;;;;;;5121248;27;20039;-51
2021/11/08 16:36:55;;;;;;;5.15;1.75;;;;;;;;;;5111991;28;20020;-52